createdAt,value
2019-05-18T00:00:24.670Z,12.40
2019-05-18T00:02:54.305Z,12.40
2019-05-18T00:05:23.585Z,12.50
2019-05-18T00:07:52.857Z,12.50
2019-05-18T00:10:22.210Z,12.50
2019-05-18T00:12:51.509Z,12.50
2019-05-18T00:15:21.118Z,12.50
2019-05-18T00:17:50.404Z,12.50
2019-05-18T00:20:20.028Z,12.40
2019-05-18T00:22:49.337Z,12.40
2019-05-18T00:25:18.610Z,12.40
2019-05-18T00:27:47.889Z,12.40
2019-05-18T00:30:17.308Z,12.40
2019-05-18T00:32:46.942Z,12.30
2019-05-18T00:35:16.768Z,12.30
2019-05-18T00:37:46.181Z,12.30
2019-05-18T00:40:15.624Z,12.30
2019-05-18T00:42:45.163Z,12.20
2019-05-18T00:45:14.975Z,12.30
2019-05-18T00:47:44.590Z,12.20
2019-05-18T00:50:14.413Z,12.20
2019-05-18T00:52:43.920Z,12.20
2019-05-18T00:55:13.337Z,12.20
2019-05-18T00:57:42.611Z,12.10
2019-05-18T01:00:12.633Z,12.10
2019-05-18T01:02:41.906Z,12.10
2019-05-18T01:05:11.483Z,12.00
2019-05-18T01:07:41.045Z,12.00
2019-05-18T01:10:10.664Z,12.10
2019-05-18T01:12:40.279Z,12.00
2019-05-18T01:15:10.187Z,12.00
2019-05-18T01:17:39.466Z,12.10
2019-05-18T01:20:09.289Z,12.10
2019-05-18T01:22:38.586Z,12.10
2019-05-18T01:25:09.006Z,12.20
2019-05-18T01:27:57.680Z,12.20
2019-05-18T01:30:27.278Z,12.30
2019-05-18T01:32:56.563Z,12.30
2019-05-18T01:35:25.847Z,12.30
2019-05-18T01:38:14.741Z,12.30
2019-05-18T01:40:44.245Z,12.30
2019-05-18T01:43:13.525Z,12.40
2019-05-18T01:45:42.838Z,12.30
2019-05-18T01:48:14.420Z,12.40
2019-05-18T01:50:43.372Z,12.30
2019-05-18T01:53:12.649Z,12.30
2019-05-18T01:55:43.942Z,12.30
2019-05-18T01:58:13.584Z,12.30
2019-05-18T02:00:44.080Z,12.10
2019-05-18T02:03:13.354Z,12.00
2019-05-18T02:05:42.638Z,12.00
2019-05-18T02:08:12.206Z,12.00
2019-05-18T02:10:41.479Z,11.90
2019-05-18T02:13:10.791Z,11.90
2019-05-18T02:15:41.427Z,11.90
2019-05-18T02:18:11.056Z,11.80
2019-05-18T02:20:40.645Z,11.90
2019-05-18T02:23:10.158Z,11.90
2019-05-18T02:25:39.753Z,11.70
2019-05-18T02:28:09.358Z,11.70
2019-05-18T02:30:38.654Z,11.70
2019-05-18T02:33:07.951Z,11.70
2019-05-18T02:35:37.237Z,11.60
2019-05-18T02:38:13.634Z,11.60
2019-05-18T02:40:43.477Z,11.70
2019-05-18T02:43:12.929Z,11.70
2019-05-18T02:45:42.615Z,11.60
2019-05-18T02:48:11.924Z,11.70
2019-05-18T02:50:41.203Z,11.70
2019-05-18T02:53:10.813Z,11.70
2019-05-18T02:55:40.097Z,11.60
2019-05-18T02:58:09.677Z,11.60
2019-05-18T03:00:39.068Z,11.60
2019-05-18T03:03:08.381Z,11.50
2019-05-18T03:05:37.679Z,11.40
2019-05-18T03:08:07.050Z,11.40
2019-05-18T03:10:36.700Z,11.40
2019-05-18T03:13:05.998Z,11.40
2019-05-18T03:15:35.290Z,11.40
2019-05-18T03:18:05.770Z,11.40
2019-05-18T03:20:35.342Z,11.40
2019-05-18T03:23:04.724Z,11.40
2019-05-18T03:25:34.018Z,11.30
2019-05-18T03:28:03.333Z,11.30
2019-05-18T03:30:32.962Z,11.30
2019-05-18T03:33:02.571Z,11.30
2019-05-18T03:35:32.349Z,11.40
2019-05-18T03:38:01.652Z,11.50
2019-05-18T03:40:30.948Z,11.50
2019-05-18T03:43:00.268Z,11.60
2019-05-18T03:45:29.566Z,11.70
2019-05-18T03:47:59.202Z,11.70
2019-05-18T03:50:28.823Z,11.70
2019-05-18T03:52:58.117Z,11.80
2019-05-18T03:55:27.443Z,11.80
2019-05-18T03:57:56.747Z,11.80
2019-05-18T04:00:26.051Z,11.80
2019-05-18T04:02:55.393Z,11.80
2019-05-18T04:05:25.020Z,11.90
2019-05-18T04:07:54.340Z,11.90
2019-05-18T04:10:27.385Z,11.90
2019-05-18T04:12:56.685Z,12.00
2019-05-18T04:15:25.979Z,12.00
2019-05-18T04:17:55.289Z,12.10
2019-05-18T04:20:24.932Z,12.10
2019-05-18T04:22:54.536Z,12.10
2019-05-18T04:25:23.827Z,12.20
2019-05-18T04:27:53.135Z,12.20
2019-05-18T04:30:22.457Z,12.30
2019-05-18T04:33:11.117Z,12.30
2019-05-18T04:35:40.408Z,12.30
2019-05-18T04:38:11.038Z,12.30
2019-05-18T04:40:40.330Z,12.30
2019-05-18T04:43:11.549Z,12.30
2019-05-18T04:45:40.920Z,12.30
2019-05-18T04:48:10.479Z,12.20
2019-05-18T04:50:40.046Z,12.30
2019-05-18T04:53:10.429Z,12.30
2019-05-18T04:55:39.723Z,12.30
2019-05-18T04:58:09.038Z,12.40
2019-05-18T05:00:38.340Z,12.40
2019-05-18T05:03:07.919Z,12.40
2019-05-18T05:05:37.535Z,12.40
2019-05-18T05:08:07.144Z,12.40
2019-05-18T05:10:36.759Z,12.40
2019-05-18T05:13:07.997Z,12.50
2019-05-18T05:15:37.291Z,12.50
2019-05-18T05:18:06.589Z,12.50
2019-05-18T05:20:35.883Z,12.50
2019-05-18T05:23:05.196Z,12.50
2019-05-18T05:25:34.548Z,12.50
2019-05-18T05:28:03.895Z,12.60
2019-05-18T05:30:33.522Z,12.60
2019-05-18T05:33:04.340Z,12.60
2019-05-18T05:35:33.908Z,12.70
2019-05-18T05:38:03.200Z,12.60
2019-05-18T05:40:32.571Z,12.70
2019-05-18T05:43:01.873Z,12.80
2019-05-18T05:45:31.173Z,12.90
2019-05-18T05:48:00.448Z,12.90
2019-05-18T05:50:36.069Z,13.00
2019-05-18T05:53:02.527Z,13.00
2019-05-18T05:55:31.833Z,13.10
2019-05-18T05:58:01.141Z,13.20
2019-05-18T06:00:30.451Z,13.20
2019-05-18T06:02:59.739Z,13.30
2019-05-18T06:05:29.052Z,13.30
2019-05-18T06:07:58.337Z,13.20
2019-05-18T06:10:27.705Z,13.40
2019-05-18T06:12:57.022Z,13.40
2019-05-18T06:15:26.326Z,13.40
2019-05-18T06:17:55.619Z,13.40
2019-05-18T06:20:24.908Z,13.50
2019-05-18T06:22:54.227Z,13.50
2019-05-18T06:25:23.892Z,13.50
2019-05-18T06:27:53.316Z,13.50
2019-05-18T06:30:22.688Z,13.60
2019-05-18T06:32:51.989Z,13.60
2019-05-18T06:35:21.279Z,13.70
2019-05-18T06:37:50.888Z,13.80
2019-05-18T06:40:20.184Z,13.90
2019-05-18T06:42:49.560Z,14.00
2019-05-18T06:45:19.005Z,14.20
2019-05-18T06:47:49.724Z,14.30
2019-05-18T06:50:22.416Z,14.40
2019-05-18T06:52:53.170Z,14.50
2019-05-18T06:55:22.495Z,14.70
2019-05-18T06:57:52.253Z,14.90
2019-05-18T07:00:21.670Z,15.00
2019-05-18T07:02:51.273Z,15.10
2019-05-18T07:05:20.552Z,15.30
2019-05-18T07:07:49.860Z,15.40
2019-05-18T07:10:19.155Z,15.50
2019-05-18T07:12:48.866Z,15.60
2019-05-18T07:15:18.628Z,15.60
2019-05-18T07:17:47.909Z,15.70
2019-05-18T07:20:17.442Z,16.00
2019-05-18T07:22:46.800Z,16.10
2019-05-18T07:25:35.446Z,16.00
2019-05-18T07:28:05.076Z,16.00
2019-05-18T07:30:34.364Z,16.00
2019-05-18T07:33:03.746Z,16.00
2019-05-18T07:35:33.040Z,15.90
2019-05-18T07:38:02.582Z,15.90
2019-05-18T07:40:32.960Z,16.00
2019-05-18T07:43:02.247Z,16.00
2019-05-18T07:45:31.520Z,16.00
2019-05-18T07:48:20.159Z,16.00
2019-05-18T07:50:49.445Z,16.00
2019-05-18T07:53:19.812Z,16.00
2019-05-18T07:55:49.101Z,16.10
2019-05-18T07:58:37.730Z,16.20
2019-05-18T08:01:07.014Z,16.20
2019-05-18T08:03:36.309Z,16.20
2019-05-18T08:06:05.606Z,16.30
2019-05-18T08:08:34.904Z,16.40
2019-05-18T08:11:04.193Z,16.50
2019-05-18T08:13:33.475Z,16.80
2019-05-18T08:16:02.765Z,16.90
2019-05-18T08:18:32.053Z,17.00
2019-05-18T08:21:01.438Z,16.90
2019-05-18T08:23:31.189Z,16.90
2019-05-18T08:26:00.478Z,17.00
2019-05-18T08:28:29.793Z,17.30
2019-05-18T08:30:59.086Z,17.50
2019-05-18T08:33:28.689Z,18.00
2019-05-18T08:35:57.995Z,18.20
2019-05-18T08:38:27.374Z,18.10
2019-05-18T08:40:57.042Z,18.40
2019-05-18T08:43:26.483Z,18.70
2019-05-18T08:45:56.105Z,19.10
2019-05-18T08:48:25.433Z,19.50
2019-05-18T08:50:55.055Z,19.80
2019-05-18T08:53:24.716Z,20.00
2019-05-18T08:55:54.355Z,20.30
2019-05-18T08:58:23.667Z,20.30
2019-05-18T09:00:53.247Z,20.30
2019-05-18T09:03:22.855Z,20.40
2019-05-18T09:05:52.140Z,20.60
2019-05-18T09:08:21.444Z,20.70
2019-05-18T09:10:51.807Z,20.80
2019-05-18T09:13:22.480Z,20.90
2019-05-18T09:15:53.466Z,20.80
2019-05-18T09:18:24.240Z,20.70
2019-05-18T09:20:56.783Z,20.60
2019-05-18T09:23:27.732Z,20.70
2019-05-18T09:25:57.172Z,20.80
2019-05-18T09:28:26.489Z,20.90
2019-05-18T09:30:55.842Z,21.00
2019-05-18T09:33:25.142Z,21.10
2019-05-18T09:35:59.406Z,21.30
2019-05-18T09:38:32.569Z,21.10
2019-05-18T09:41:02.719Z,21.20
2019-05-18T09:43:33.626Z,20.90
2019-05-18T09:46:03.367Z,21.20
2019-05-18T09:48:33.769Z,21.30
2019-05-18T09:51:03.528Z,21.20
2019-05-18T09:53:35.535Z,21.30
2019-05-18T09:56:05.236Z,21.50
2019-05-18T09:58:34.949Z,21.60
2019-05-18T10:01:04.322Z,21.80
2019-05-18T10:03:33.656Z,21.90
2019-05-18T10:06:04.449Z,22.00
2019-05-18T10:08:33.877Z,22.10
2019-05-18T10:11:04.327Z,22.10
2019-05-18T10:13:34.268Z,22.20
2019-05-18T10:16:05.469Z,22.20
2019-05-18T10:18:34.764Z,22.10
2019-05-18T10:21:04.235Z,22.10
2019-05-18T10:23:33.890Z,22.00
2019-05-18T10:26:03.295Z,22.10
2019-05-18T10:28:32.603Z,22.00
2019-05-18T10:31:01.924Z,21.80
2019-05-18T10:33:31.334Z,21.90
2019-05-18T10:36:00.762Z,22.10
2019-05-18T10:38:30.070Z,22.10
2019-05-18T10:41:01.634Z,22.10
2019-05-18T10:43:31.297Z,22.20
2019-05-18T10:46:01.635Z,22.40
2019-05-18T10:48:32.971Z,22.40
2019-05-18T10:51:05.653Z,22.60
2019-05-18T10:53:34.841Z,22.50
2019-05-18T10:56:04.251Z,22.50
2019-05-18T10:58:33.663Z,22.20
2019-05-18T11:01:03.019Z,22.20
2019-05-18T11:03:35.101Z,22.10
2019-05-18T11:06:06.087Z,22.10
2019-05-18T11:08:38.374Z,22.20
2019-05-18T11:11:07.802Z,22.10
2019-05-18T11:13:37.178Z,22.00
2019-05-18T11:16:06.578Z,22.00
2019-05-18T11:18:36.374Z,22.00
2019-05-18T11:21:06.103Z,22.00
2019-05-18T11:23:43.286Z,22.20
2019-05-18T11:26:06.539Z,22.50
2019-05-18T11:28:35.931Z,22.60
2019-05-18T11:31:05.647Z,22.80
2019-05-18T11:33:38.067Z,22.80
2019-05-18T11:36:07.623Z,23.00
2019-05-18T11:38:37.281Z,23.10
2019-05-18T11:41:06.981Z,23.10
2019-05-18T11:43:36.582Z,23.10
2019-05-18T11:46:05.922Z,23.30
2019-05-18T11:48:35.225Z,23.30
2019-05-18T11:51:04.874Z,23.00
2019-05-18T11:53:34.207Z,23.00
2019-05-18T11:56:03.620Z,22.80
2019-05-18T11:58:33.006Z,22.60
2019-05-18T12:01:03.985Z,22.40
2019-05-18T12:03:33.306Z,22.40
2019-05-18T12:06:02.673Z,22.50
2019-05-18T12:08:34.849Z,22.60
2019-05-18T12:11:04.197Z,22.50
2019-05-18T12:13:33.494Z,22.50
2019-05-18T12:16:02.872Z,22.40
2019-05-18T12:18:32.636Z,22.20
2019-05-18T12:21:01.974Z,22.30
2019-05-18T12:23:31.278Z,22.30
2019-05-18T12:26:01.109Z,22.40
2019-05-18T12:28:31.558Z,22.50
2019-05-18T12:31:02.180Z,22.50
2019-05-18T12:33:32.023Z,22.60
2019-05-18T12:36:01.320Z,22.60
2019-05-18T12:38:32.316Z,22.70
2019-05-18T12:41:01.610Z,22.80
2019-05-18T12:43:33.677Z,22.80
2019-05-18T12:46:06.224Z,22.60
2019-05-18T12:48:36.135Z,22.50
2019-05-18T12:51:05.455Z,22.50
2019-05-18T12:53:34.812Z,22.70
2019-05-18T12:56:04.145Z,22.80
2019-05-18T12:58:37.582Z,22.80
2019-05-18T13:01:08.563Z,22.80
2019-05-18T13:03:37.162Z,22.80
2019-05-18T13:06:07.008Z,22.70
2019-05-18T13:08:36.321Z,22.70
2019-05-18T13:11:05.982Z,22.80
2019-05-18T13:13:35.595Z,22.80
2019-05-18T13:16:05.290Z,22.70
2019-05-18T13:18:35.225Z,22.80
2019-05-18T13:21:04.610Z,22.80
2019-05-18T13:23:33.944Z,22.80
2019-05-18T13:26:04.105Z,22.70
2019-05-18T13:28:34.985Z,22.80
2019-05-18T13:31:05.947Z,22.90
2019-05-18T13:33:39.006Z,22.90
2019-05-18T13:36:08.372Z,22.90
2019-05-18T13:38:37.784Z,23.00
2019-05-18T13:41:07.258Z,22.60
2019-05-18T13:43:37.070Z,21.80
2019-05-18T13:46:06.752Z,21.20
2019-05-18T13:48:36.451Z,20.90
2019-05-18T13:51:11.268Z,20.90
2019-05-18T13:53:40.860Z,21.00
2019-05-18T13:56:11.742Z,20.90
2019-05-18T13:58:41.109Z,20.90
2019-05-18T14:01:12.048Z,20.70
2019-05-18T14:03:41.670Z,20.70
2019-05-18T14:06:11.031Z,20.70
2019-05-18T14:08:40.596Z,20.70
2019-05-18T14:11:11.520Z,20.80
2019-05-18T14:13:43.569Z,20.80
2019-05-18T14:16:12.971Z,20.80
2019-05-18T14:18:42.355Z,20.90
2019-05-18T14:21:12.097Z,21.00
2019-05-18T14:23:41.814Z,21.10
2019-05-18T14:26:14.083Z,21.10
2019-05-18T14:28:43.590Z,21.10
2019-05-18T14:31:12.963Z,21.20
2019-05-18T14:33:43.870Z,21.20
2019-05-18T14:36:16.002Z,21.20
2019-05-18T14:38:45.355Z,21.10
2019-05-18T14:41:14.678Z,21.10
2019-05-18T14:43:44.411Z,20.90
2019-05-18T14:46:15.563Z,20.90
2019-05-18T14:48:44.914Z,20.80
2019-05-18T14:51:14.287Z,20.90
2019-05-18T14:53:45.046Z,20.90
2019-05-18T14:56:14.720Z,20.90
2019-05-18T14:58:44.043Z,21.00
2019-05-18T15:01:14.551Z,21.00
2019-05-18T15:03:46.574Z,20.90
2019-05-18T15:06:15.921Z,20.90
2019-05-18T15:08:45.379Z,20.80
2019-05-18T15:11:14.750Z,20.60
2019-05-18T15:13:44.147Z,20.60
2019-05-18T15:16:14.601Z,20.60
2019-05-18T15:18:43.941Z,20.50
2019-05-18T15:21:13.255Z,20.50
2019-05-18T15:23:46.832Z,20.50
2019-05-18T15:26:16.456Z,20.50
2019-05-18T15:28:45.750Z,20.60
2019-05-18T15:31:16.597Z,20.60
2019-05-18T15:33:45.881Z,20.50
2019-05-18T15:36:15.200Z,20.50
2019-05-18T15:38:45.742Z,20.40
2019-05-18T15:41:15.086Z,20.50
2019-05-18T15:43:46.277Z,20.50
2019-05-18T15:46:15.640Z,20.60
2019-05-18T15:48:45.138Z,20.70
2019-05-18T15:51:14.800Z,20.70
2019-05-18T15:53:44.099Z,20.70
2019-05-18T15:56:13.682Z,20.60
2019-05-18T15:58:46.848Z,20.60
2019-05-18T16:01:14.884Z,20.60
2019-05-18T16:03:44.265Z,20.60
2019-05-18T16:06:13.711Z,20.70
2019-05-18T16:08:43.073Z,20.70
2019-05-18T16:11:12.352Z,20.70
2019-05-18T16:13:41.728Z,20.70
2019-05-18T16:16:12.551Z,20.70
2019-05-18T16:18:41.850Z,20.70
2019-05-18T16:21:14.148Z,20.70
2019-05-18T16:23:43.668Z,20.70
2019-05-18T16:26:21.125Z,20.80
2019-05-18T16:28:44.878Z,20.90
2019-05-18T16:31:14.188Z,21.10
2019-05-18T16:33:43.753Z,21.20
2019-05-18T16:36:13.563Z,21.30
2019-05-18T16:38:42.899Z,21.40
2019-05-18T16:41:12.430Z,21.50
2019-05-18T16:43:41.748Z,21.60
2019-05-18T16:46:11.406Z,21.70
2019-05-18T16:48:40.989Z,21.90
2019-05-18T16:51:10.336Z,21.90
2019-05-18T16:53:40.735Z,21.90
2019-05-18T16:56:10.119Z,21.90
2019-05-18T16:58:39.722Z,21.90
2019-05-18T17:01:09.071Z,21.90
2019-05-18T17:03:38.647Z,21.80
2019-05-18T17:06:09.867Z,21.80
2019-05-18T17:08:41.879Z,21.70
2019-05-18T17:11:11.455Z,21.60
2019-05-18T17:13:40.781Z,21.60
2019-05-18T17:16:10.373Z,21.50
2019-05-18T17:18:39.963Z,21.50
2019-05-18T17:21:09.263Z,21.40
2019-05-18T17:23:38.572Z,21.40
2019-05-18T17:26:07.902Z,21.30
2019-05-18T17:28:37.193Z,21.30
2019-05-18T17:31:06.553Z,21.30
2019-05-18T17:33:36.168Z,21.30
2019-05-18T17:36:08.700Z,21.30
2019-05-18T17:38:38.359Z,21.20
2019-05-18T17:41:07.736Z,21.20
2019-05-18T17:43:42.659Z,21.20
2019-05-18T17:46:12.321Z,21.20
2019-05-18T17:48:41.834Z,21.30
2019-05-18T17:51:12.851Z,21.30
2019-05-18T17:53:42.171Z,21.20
2019-05-18T17:56:11.467Z,21.30
2019-05-18T17:58:41.062Z,21.20
2019-05-18T18:01:11.984Z,21.10
2019-05-18T18:03:41.610Z,21.00
2019-05-18T18:06:10.928Z,21.00
2019-05-18T18:08:40.539Z,21.00
2019-05-18T18:11:11.982Z,21.00
2019-05-18T18:13:41.417Z,20.90
2019-05-18T18:16:10.828Z,20.90
2019-05-18T18:18:40.144Z,20.90
2019-05-18T18:21:11.043Z,20.90
2019-05-18T18:23:41.891Z,20.80
2019-05-18T18:26:13.207Z,20.80
2019-05-18T18:28:42.576Z,20.80
2019-05-18T18:31:13.880Z,20.80
2019-05-18T18:33:45.377Z,20.70
2019-05-18T18:36:14.928Z,20.60
2019-05-18T18:38:47.228Z,20.60
2019-05-18T18:41:16.564Z,20.60
2019-05-18T18:43:46.515Z,20.50
2019-05-18T18:46:15.859Z,20.50
2019-05-18T18:48:45.147Z,20.40
2019-05-18T18:51:14.454Z,20.30
2019-05-18T18:53:44.106Z,20.20
2019-05-18T18:56:15.358Z,20.10
2019-05-18T18:58:49.452Z,19.90
2019-05-18T19:01:21.374Z,19.80
2019-05-18T19:03:50.667Z,19.60
2019-05-18T19:06:20.077Z,19.40
2019-05-18T19:08:49.507Z,19.00
2019-05-18T19:11:18.818Z,18.50
2019-05-18T19:13:48.549Z,18.30
2019-05-18T19:16:17.851Z,18.10
2019-05-18T19:18:47.433Z,17.80
2019-05-18T19:21:17.055Z,17.60
2019-05-18T19:23:46.378Z,17.30
2019-05-18T19:26:15.687Z,17.30
2019-05-18T19:28:45.259Z,17.20
2019-05-18T19:31:14.558Z,17.20
2019-05-18T19:33:43.854Z,17.20
2019-05-18T19:36:13.176Z,17.20
2019-05-18T19:38:42.461Z,17.30
2019-05-18T19:41:12.072Z,17.40
2019-05-18T19:43:41.822Z,17.40
2019-05-18T19:46:11.122Z,17.30
2019-05-18T19:48:40.692Z,17.30
2019-05-18T19:51:10.299Z,17.30
2019-05-18T19:53:39.570Z,17.20
2019-05-18T19:56:09.131Z,17.00
2019-05-18T19:58:39.971Z,16.90
2019-05-18T20:01:09.546Z,16.90
2019-05-18T20:03:39.158Z,16.80
2019-05-18T20:06:08.453Z,16.70
2019-05-18T20:08:38.190Z,16.70
2019-05-18T20:11:08.491Z,16.60
2019-05-18T20:13:37.802Z,16.50
2019-05-18T20:16:07.086Z,16.40
2019-05-18T20:18:36.370Z,16.30
2019-05-18T20:21:07.189Z,16.10
2019-05-18T20:23:36.510Z,16.10
2019-05-18T20:26:07.348Z,16.00
2019-05-18T20:28:38.860Z,15.90
2019-05-18T20:31:08.143Z,15.90
2019-05-18T20:33:37.677Z,15.90
2019-05-18T20:36:06.955Z,16.00
2019-05-18T20:38:38.651Z,16.20
2019-05-18T20:41:08.291Z,16.30
2019-05-18T20:43:37.666Z,16.30
2019-05-18T20:46:06.930Z,16.30
2019-05-18T20:48:36.224Z,16.30
2019-05-18T20:51:05.803Z,16.30
2019-05-18T20:53:35.342Z,16.20
2019-05-18T20:56:05.018Z,16.30
2019-05-18T20:58:39.941Z,16.20
2019-05-18T21:01:05.402Z,16.20
2019-05-18T21:03:36.226Z,16.10
2019-05-18T21:06:05.606Z,16.10
2019-05-18T21:08:34.906Z,16.10
2019-05-18T21:11:04.202Z,16.10
2019-05-18T21:13:33.505Z,16.10
2019-05-18T21:16:02.782Z,16.10
2019-05-18T21:18:32.071Z,16.10
2019-05-18T21:21:01.619Z,16.00
2019-05-18T21:23:30.923Z,15.90
2019-05-18T21:26:00.261Z,15.80
2019-05-18T21:28:29.871Z,15.70
2019-05-18T21:30:59.578Z,15.70
2019-05-18T21:33:29.110Z,15.60
2019-05-18T21:36:01.468Z,15.40
2019-05-18T21:38:31.042Z,15.30
2019-05-18T21:41:00.436Z,15.20
2019-05-18T21:43:29.721Z,15.20
2019-05-18T21:46:00.082Z,15.20
2019-05-18T21:48:29.367Z,15.30
2019-05-18T21:50:58.665Z,15.30
2019-05-18T21:53:28.256Z,15.40
2019-05-18T21:55:57.550Z,15.40
2019-05-18T21:58:26.844Z,15.50
2019-05-18T22:00:56.298Z,15.40
2019-05-18T22:03:25.833Z,15.40
2019-05-18T22:05:55.372Z,15.40
2019-05-18T22:08:26.206Z,15.50
2019-05-18T22:10:55.510Z,15.50
2019-05-18T22:13:25.116Z,15.50
2019-05-18T22:15:54.420Z,15.50
2019-05-18T22:18:25.063Z,15.50
2019-05-18T22:20:54.523Z,15.60
2019-05-18T22:23:27.067Z,15.60
2019-05-18T22:25:57.902Z,15.50
2019-05-18T22:28:27.182Z,15.60
2019-05-18T22:30:59.618Z,15.50
2019-05-18T22:33:27.516Z,15.50
2019-05-18T22:35:57.170Z,15.60
2019-05-18T22:38:26.461Z,15.70
2019-05-18T22:40:56.017Z,15.60
2019-05-18T22:43:25.316Z,15.50
2019-05-18T22:45:55.953Z,15.40
2019-05-18T22:48:38.924Z,15.40
2019-05-18T22:50:56.530Z,15.30
2019-05-18T22:53:25.818Z,15.20
2019-05-18T22:55:55.120Z,15.20
2019-05-18T22:58:24.427Z,15.20
2019-05-18T23:01:01.737Z,15.20
2019-05-18T23:03:33.358Z,15.20
2019-05-18T23:06:02.677Z,15.20
2019-05-18T23:08:31.961Z,15.20
2019-05-18T23:11:01.282Z,15.20
2019-05-18T23:13:30.583Z,15.20
2019-05-18T23:16:00.181Z,15.20
2019-05-18T23:18:29.766Z,15.30
2019-05-18T23:20:59.082Z,15.30
2019-05-18T23:23:28.368Z,15.30
2019-05-18T23:25:57.673Z,15.30
2019-05-18T23:28:26.957Z,15.30
2019-05-18T23:30:56.604Z,15.30
2019-05-18T23:33:25.891Z,15.30
2019-05-18T23:35:57.026Z,15.30
2019-05-18T23:38:26.628Z,15.30
2019-05-18T23:40:55.938Z,15.40
2019-05-18T23:43:25.231Z,15.30
2019-05-18T23:45:54.575Z,15.30
2019-05-18T23:48:23.854Z,15.30
2019-05-18T23:50:53.149Z,15.30
2019-05-18T23:53:22.431Z,15.30
2019-05-18T23:55:51.739Z,15.30
2019-05-18T23:58:21.030Z,15.30
